createdAt,value
2018-08-22T00:01:07.049Z,1.70
2018-08-22T00:03:35.279Z,1.30
2018-08-22T00:06:03.503Z,1.43
2018-08-22T00:08:37.118Z,1.20
2018-08-22T00:11:05.729Z,1.70
2018-08-22T00:13:34.026Z,1.40
2018-08-22T00:16:02.275Z,1.57
2018-08-22T00:18:30.511Z,1.10
2018-08-22T00:20:58.771Z,1.67
2018-08-22T00:23:27.053Z,1.10
2018-08-22T00:25:55.307Z,1.27
2018-08-22T00:28:26.744Z,1.07
2018-08-22T00:30:59.896Z,1.30
2018-08-22T00:33:28.187Z,1.17
2018-08-22T00:35:56.459Z,0.80
2018-08-22T00:38:27.936Z,1.30
2018-08-22T00:40:58.910Z,1.40
2018-08-22T00:43:27.390Z,1.47
2018-08-22T00:45:55.676Z,1.60
2018-08-22T00:48:25.900Z,0.97
2018-08-22T00:50:55.003Z,1.77
2018-08-22T00:53:23.882Z,1.37
2018-08-22T00:55:52.207Z,1.27
2018-08-22T00:58:20.475Z,1.13
2018-08-22T01:00:48.763Z,1.57
2018-08-22T01:03:17.025Z,1.60
2018-08-22T01:05:45.275Z,1.27
2018-08-22T01:08:15.841Z,1.30
2018-08-22T01:10:44.113Z,1.30
2018-08-22T01:13:12.420Z,1.20
2018-08-22T01:15:40.699Z,1.60
2018-08-22T01:18:09.051Z,1.17
2018-08-22T01:20:37.306Z,0.93
2018-08-22T01:23:05.595Z,1.00
2018-08-22T01:25:33.867Z,1.53
2018-08-22T01:28:02.143Z,1.30
2018-08-22T01:30:30.491Z,1.53
2018-08-22T01:32:58.794Z,2.40
2018-08-22T01:35:27.048Z,0.93
2018-08-22T01:37:55.356Z,1.07
2018-08-22T01:40:23.748Z,1.37
2018-08-22T01:42:52.011Z,1.53
2018-08-22T01:45:20.272Z,1.47
2018-08-22T01:47:48.583Z,1.20
2018-08-22T01:50:16.856Z,1.37
2018-08-22T01:52:45.107Z,1.50
2018-08-22T01:55:13.391Z,1.30
2018-08-22T01:57:41.671Z,1.20
2018-08-22T02:00:09.932Z,1.10
2018-08-22T02:02:38.154Z,1.13
2018-08-22T02:05:06.468Z,1.47
2018-08-22T02:07:34.687Z,1.47
2018-08-22T02:10:02.954Z,1.33
2018-08-22T02:12:31.216Z,1.50
2018-08-22T02:14:59.472Z,1.20
2018-08-22T02:17:27.670Z,1.10
2018-08-22T02:19:55.933Z,1.30
2018-08-22T02:22:24.212Z,1.63
2018-08-22T02:24:52.502Z,1.17
2018-08-22T02:27:20.727Z,1.40
2018-08-22T02:29:49.011Z,1.73
2018-08-22T02:32:17.255Z,1.13
2018-08-22T02:34:45.579Z,1.27
2018-08-22T02:37:13.792Z,1.37
2018-08-22T02:39:42.062Z,1.50
2018-08-22T02:42:10.301Z,1.77
2018-08-22T02:44:38.584Z,1.60
2018-08-22T02:47:06.853Z,1.20
2018-08-22T02:49:35.111Z,1.67
2018-08-22T02:52:03.352Z,1.13
2018-08-22T02:54:31.596Z,1.40
2018-08-22T02:56:59.890Z,1.10
2018-08-22T02:59:28.122Z,1.30
2018-08-22T03:01:56.396Z,1.50
2018-08-22T03:04:25.074Z,1.20
2018-08-22T03:06:53.642Z,1.17
2018-08-22T03:09:21.955Z,1.40
2018-08-22T03:11:50.308Z,1.20
2018-08-22T03:14:18.588Z,1.30
2018-08-22T03:16:46.986Z,1.50
2018-08-22T03:19:16.272Z,1.40
2018-08-22T03:21:44.533Z,1.20
2018-08-22T03:24:12.792Z,1.33
2018-08-22T03:26:41.016Z,1.00
2018-08-22T03:29:09.309Z,1.03
2018-08-22T03:31:37.523Z,1.63
2018-08-22T03:34:05.761Z,1.10
2018-08-22T03:36:33.997Z,1.20
2018-08-22T03:39:02.331Z,1.37
2018-08-22T03:41:30.603Z,1.50
2018-08-22T03:43:58.838Z,1.00
2018-08-22T03:46:27.074Z,1.17
2018-08-22T03:48:55.290Z,1.27
2018-08-22T03:51:23.515Z,1.20
2018-08-22T03:53:51.761Z,1.60
2018-08-22T03:56:20.059Z,1.40
2018-08-22T03:58:48.320Z,1.93
2018-08-22T04:01:16.602Z,1.70
2018-08-22T04:03:44.883Z,1.40
2018-08-22T04:06:13.133Z,1.27
2018-08-22T04:08:41.394Z,1.07
2018-08-22T04:11:09.619Z,1.53
2018-08-22T04:13:38.043Z,1.40
2018-08-22T04:16:06.280Z,1.27
2018-08-22T04:18:34.514Z,1.20
2018-08-22T04:21:02.762Z,1.00
2018-08-22T04:23:30.988Z,3.13
2018-08-22T04:25:59.211Z,1.20
2018-08-22T04:28:27.415Z,1.23
2018-08-22T04:30:55.660Z,1.30
2018-08-22T04:33:23.908Z,1.50
2018-08-22T04:35:52.131Z,1.07
2018-08-22T04:38:20.377Z,1.30
2018-08-22T04:40:48.617Z,1.27
2018-08-22T04:43:16.847Z,1.40
2018-08-22T04:45:45.127Z,1.67
2018-08-22T04:48:13.432Z,1.30
2018-08-22T04:50:41.606Z,1.70
2018-08-22T04:53:09.835Z,1.90
2018-08-22T04:55:38.067Z,1.73
2018-08-22T04:58:06.303Z,1.43
2018-08-22T05:00:34.525Z,1.27
2018-08-22T05:03:02.770Z,1.50
2018-08-22T05:05:31.127Z,1.57
2018-08-22T05:07:59.378Z,1.20
2018-08-22T05:10:27.596Z,1.40
2018-08-22T05:12:55.850Z,1.70
2018-08-22T05:15:24.079Z,1.10
2018-08-22T05:17:52.357Z,1.50
2018-08-22T05:20:20.654Z,1.20
2018-08-22T05:22:48.922Z,1.27
2018-08-22T05:25:17.231Z,1.43
2018-08-22T05:27:45.555Z,1.80
2018-08-22T05:30:13.960Z,1.40
2018-08-22T05:32:42.217Z,1.47
2018-08-22T05:35:10.432Z,1.47
2018-08-22T05:37:38.675Z,1.27
2018-08-22T05:40:06.914Z,2.00
2018-08-22T05:42:35.147Z,1.50
2018-08-22T05:45:03.363Z,1.20
2018-08-22T05:47:31.584Z,1.23
2018-08-22T05:49:59.827Z,1.10
2018-08-22T05:52:28.046Z,1.10
2018-08-22T05:54:56.372Z,1.80
2018-08-22T05:57:24.685Z,1.50
2018-08-22T05:59:52.907Z,1.00
2018-08-22T06:02:21.151Z,1.37
2018-08-22T06:04:49.407Z,1.13
2018-08-22T06:07:17.660Z,1.53
2018-08-22T06:09:45.888Z,1.60
2018-08-22T06:12:14.182Z,1.10
2018-08-22T06:14:42.407Z,1.20
2018-08-22T06:17:10.705Z,1.17
2018-08-22T06:19:39.216Z,1.37
2018-08-22T06:22:07.665Z,1.23
2018-08-22T06:24:36.017Z,1.67
2018-08-22T06:27:04.247Z,1.70
2018-08-22T06:29:32.483Z,0.93
2018-08-22T06:32:00.825Z,1.80
2018-08-22T06:34:29.034Z,1.37
2018-08-22T06:36:57.319Z,1.57
2018-08-22T06:39:25.756Z,1.23
2018-08-22T06:41:54.016Z,1.37
2018-08-22T06:44:22.263Z,1.07
2018-08-22T06:46:50.789Z,1.53
2018-08-22T06:49:19.025Z,1.47
2018-08-22T06:51:47.281Z,1.20
2018-08-22T06:54:15.525Z,1.10
2018-08-22T06:56:43.780Z,1.20
2018-08-22T06:59:12.063Z,1.40
2018-08-22T07:01:40.364Z,1.10
2018-08-22T07:04:08.617Z,1.60
2018-08-22T07:06:36.872Z,1.90
2018-08-22T07:09:08.071Z,1.40
2018-08-22T07:11:36.342Z,1.70
2018-08-22T07:14:04.596Z,1.20
2018-08-22T07:16:32.805Z,1.27
2018-08-22T07:19:01.039Z,1.67
2018-08-22T07:21:29.272Z,1.20
2018-08-22T07:23:57.528Z,1.50
2018-08-22T07:26:25.968Z,1.10
2018-08-22T07:28:54.246Z,1.23
2018-08-22T07:31:22.489Z,1.17
2018-08-22T07:33:50.739Z,1.53
2018-08-22T07:36:18.986Z,0.83
2018-08-22T07:38:47.216Z,1.40
2018-08-22T07:41:15.396Z,1.10
2018-08-22T07:43:43.623Z,1.50
2018-08-22T07:46:11.847Z,1.40
2018-08-22T07:48:40.092Z,1.30
2018-08-22T07:51:08.320Z,1.20
2018-08-22T07:53:37.078Z,1.10
2018-08-22T07:56:10.829Z,1.53
2018-08-22T07:58:39.075Z,1.00
2018-08-22T08:01:07.298Z,1.07
2018-08-22T08:03:35.591Z,1.50
2018-08-22T08:06:03.816Z,1.40
2018-08-22T08:08:32.061Z,1.30
2018-08-22T08:11:00.290Z,1.77
2018-08-22T08:13:29.653Z,1.37
2018-08-22T08:15:58.616Z,1.33
2018-08-22T08:18:26.851Z,1.77
2018-08-22T08:20:55.124Z,1.30
2018-08-22T08:23:23.379Z,1.90
2018-08-22T08:25:51.598Z,1.97
2018-08-22T08:28:19.813Z,1.30
2018-08-22T08:30:48.029Z,1.80
2018-08-22T08:33:16.259Z,1.27
2018-08-22T08:35:44.542Z,1.73
2018-08-22T08:38:12.772Z,1.13
2018-08-22T08:40:41.081Z,1.23
2018-08-22T08:43:09.332Z,1.17
2018-08-22T08:45:39.140Z,1.07
2018-08-22T08:48:07.412Z,1.23
2018-08-22T08:50:35.631Z,1.60
2018-08-22T08:53:03.882Z,1.30
2018-08-22T08:55:32.108Z,1.23
2018-08-22T08:58:00.359Z,1.17
2018-08-22T09:00:28.595Z,1.53
2018-08-22T09:02:56.848Z,0.90
2018-08-22T09:05:25.073Z,1.10
2018-08-22T09:07:53.307Z,1.33
2018-08-22T09:10:21.595Z,1.17
2018-08-22T09:12:49.833Z,1.20
2018-08-22T09:15:18.056Z,0.80
2018-08-22T09:17:46.289Z,0.90
2018-08-22T09:20:14.554Z,0.90
2018-08-22T09:22:42.780Z,0.80
2018-08-22T09:25:11.008Z,0.83
2018-08-22T09:27:39.268Z,1.03
2018-08-22T09:30:07.667Z,1.33
2018-08-22T09:32:35.898Z,0.93
2018-08-22T09:35:04.135Z,1.57
2018-08-22T09:37:32.595Z,0.80
2018-08-22T09:40:00.992Z,1.10
2018-08-22T09:42:29.251Z,0.90
2018-08-22T09:44:57.515Z,1.00
2018-08-22T09:47:25.814Z,0.70
2018-08-22T09:49:54.146Z,0.70
2018-08-22T09:52:22.423Z,0.90
2018-08-22T09:55:03.828Z,0.70
2018-08-22T09:57:32.387Z,1.87
2018-08-22T10:00:00.671Z,0.80
2018-08-22T10:02:28.944Z,0.90
2018-08-22T10:04:58.443Z,1.10
2018-08-22T10:07:26.675Z,1.53
2018-08-22T10:09:55.008Z,0.90
2018-08-22T10:12:23.394Z,1.00
2018-08-22T10:14:51.702Z,0.73
2018-08-22T10:17:19.959Z,1.07
2018-08-22T10:19:48.223Z,0.87
2018-08-22T10:22:17.050Z,0.60
2018-08-22T10:24:45.285Z,1.23
2018-08-22T10:27:13.533Z,1.10
2018-08-22T10:29:41.797Z,0.90
2018-08-22T10:32:10.131Z,0.90
2018-08-22T10:34:38.359Z,1.00
2018-08-22T10:37:06.579Z,0.50
2018-08-22T10:39:34.907Z,1.07
2018-08-22T10:42:03.125Z,0.90
2018-08-22T10:44:31.481Z,0.93
2018-08-22T10:46:59.673Z,1.00
2018-08-22T10:49:28.022Z,1.43
2018-08-22T10:51:56.266Z,0.93
2018-08-22T10:54:24.512Z,1.07
2018-08-22T10:56:52.763Z,1.00
2018-08-22T10:59:21.055Z,0.97
2018-08-22T11:01:49.337Z,1.00
2018-08-22T11:04:17.663Z,1.57
2018-08-22T11:06:45.946Z,1.30
2018-08-22T11:09:14.187Z,0.97
2018-08-22T11:11:42.415Z,1.13
2018-08-22T11:14:10.675Z,1.30
2018-08-22T11:16:38.967Z,0.80
2018-08-22T11:19:07.187Z,1.60
2018-08-22T11:21:46.950Z,1.13
2018-08-22T11:24:26.558Z,0.80
2018-08-22T11:27:06.396Z,1.27
2018-08-22T11:29:46.211Z,1.40
2018-08-22T11:32:25.896Z,1.20
2018-08-22T11:34:53.158Z,1.17
2018-08-22T11:37:21.436Z,1.00
2018-08-22T11:39:50.699Z,0.93
2018-08-22T11:42:20.580Z,1.00
2018-08-22T11:44:48.836Z,1.60
2018-08-22T11:47:17.066Z,1.63
2018-08-22T11:49:46.248Z,1.90
2018-08-22T11:52:14.804Z,1.90
2018-08-22T11:54:43.045Z,1.43
2018-08-22T11:57:11.359Z,1.43
2018-08-22T11:59:39.599Z,1.30
2018-08-22T12:02:07.841Z,1.43
2018-08-22T12:04:36.083Z,1.43
2018-08-22T12:07:04.314Z,1.47
2018-08-22T12:09:32.539Z,1.20
2018-08-22T12:12:01.731Z,1.80
2018-08-22T12:14:29.939Z,1.63
2018-08-22T12:16:58.452Z,1.90
2018-08-22T12:19:26.689Z,1.90
2018-08-22T12:21:54.940Z,2.07
2018-08-22T12:24:23.277Z,1.60
2018-08-22T12:26:51.525Z,2.40
2018-08-22T12:29:19.764Z,2.77
2018-08-22T12:31:48.119Z,1.63
2018-08-22T12:34:16.365Z,2.00
2018-08-22T12:36:44.808Z,1.77
2018-08-22T12:39:13.035Z,2.97
2018-08-22T12:41:41.283Z,2.50
2018-08-22T12:44:10.380Z,2.70
2018-08-22T12:46:38.698Z,2.30
2018-08-22T12:49:07.431Z,2.27
2018-08-22T12:51:35.655Z,2.00
2018-08-22T12:54:03.903Z,1.87
2018-08-22T12:56:32.167Z,1.97
2018-08-22T12:59:00.457Z,1.80
2018-08-22T13:01:28.675Z,1.77
2018-08-22T13:03:56.903Z,1.80
2018-08-22T13:06:25.136Z,2.03
2018-08-22T13:08:53.374Z,2.07
2018-08-22T13:11:21.803Z,2.00
2018-08-22T13:13:50.751Z,2.07
2018-08-22T13:16:20.520Z,2.40
2018-08-22T13:18:48.760Z,4.57
2018-08-22T13:21:17.600Z,2.60
2018-08-22T13:23:45.891Z,2.20
2018-08-22T13:26:14.264Z,1.93
2018-08-22T13:28:42.503Z,1.70
2018-08-22T13:31:11.442Z,1.83
2018-08-22T13:33:40.587Z,2.17
2018-08-22T13:36:10.868Z,2.00
2018-08-22T13:38:39.883Z,1.97
2018-08-22T13:41:09.980Z,2.10
2018-08-22T13:43:38.599Z,2.13
2018-08-22T13:46:06.866Z,2.13
2018-08-22T13:48:37.061Z,2.50
2018-08-22T13:51:05.643Z,2.63
2018-08-22T13:53:34.740Z,2.03
2018-08-22T13:56:03.202Z,2.40
2018-08-22T13:58:31.763Z,2.17
2018-08-22T14:01:06.761Z,1.93
2018-08-22T14:03:35.072Z,2.50
2018-08-22T14:06:03.325Z,2.33
2018-08-22T14:08:31.593Z,2.37
2018-08-22T14:11:02.380Z,2.17
2018-08-22T14:13:31.590Z,2.37
2018-08-22T14:16:00.443Z,2.33
2018-08-22T14:18:29.298Z,2.50
2018-08-22T14:20:58.042Z,2.93
2018-08-22T14:23:26.997Z,2.77
2018-08-22T14:25:57.653Z,2.23
2018-08-22T14:28:26.666Z,2.13
2018-08-22T14:30:55.796Z,2.50
2018-08-22T14:33:24.608Z,2.60
2018-08-22T14:35:52.856Z,2.43
2018-08-22T14:38:21.122Z,2.40
2018-08-22T14:40:49.398Z,2.63
2018-08-22T14:43:17.627Z,2.60
2018-08-22T14:45:45.832Z,2.50
2018-08-22T14:48:14.070Z,2.30
2018-08-22T14:50:42.504Z,2.70
2018-08-22T14:53:10.712Z,2.80
2018-08-22T14:55:38.987Z,2.50
2018-08-22T14:58:07.243Z,2.40
2018-08-22T15:00:35.464Z,2.63
2018-08-22T15:03:04.471Z,3.17
2018-08-22T15:05:32.482Z,2.60
2018-08-22T15:08:00.730Z,7.20
2018-08-22T15:10:28.940Z,2.50
2018-08-22T15:12:57.194Z,2.63
2018-08-22T15:15:25.405Z,2.50
2018-08-22T15:17:53.624Z,2.80
2018-08-22T15:20:21.870Z,2.50
2018-08-22T15:22:50.107Z,2.40
2018-08-22T15:25:18.369Z,2.57
2018-08-22T15:27:46.666Z,2.30
2018-08-22T15:30:14.922Z,2.20
2018-08-22T15:32:43.200Z,2.53
2018-08-22T15:35:11.480Z,2.70
2018-08-22T15:37:39.856Z,3.70
2018-08-22T15:40:08.144Z,2.63
2018-08-22T15:42:36.436Z,2.63
2018-08-22T15:45:04.665Z,2.20
2018-08-22T15:47:33.037Z,2.27
2018-08-22T15:50:01.256Z,2.70
2018-08-22T15:52:29.451Z,2.40
2018-08-22T15:55:10.162Z,2.70
2018-08-22T15:57:51.294Z,2.40
2018-08-22T16:00:52.218Z,3.03
2018-08-22T16:03:20.853Z,2.47
2018-08-22T16:05:50.071Z,2.40
2018-08-22T16:08:19.911Z,2.43
2018-08-22T16:10:48.779Z,3.10
2018-08-22T16:13:23.113Z,2.90
2018-08-22T16:15:53.575Z,2.60
2018-08-22T16:18:23.124Z,2.60
2018-08-22T16:21:02.417Z,2.40
2018-08-22T16:23:34.668Z,2.90
2018-08-22T16:26:03.991Z,2.93
2018-08-22T16:28:45.071Z,2.70
2018-08-22T16:31:14.480Z,2.90
2018-08-22T16:33:42.802Z,2.50
2018-08-22T16:36:31.911Z,2.70
2018-08-22T16:39:01.569Z,2.70
2018-08-22T16:41:30.118Z,2.60
2018-08-22T16:43:59.164Z,2.20
2018-08-22T16:46:27.445Z,2.30
2018-08-22T16:48:56.848Z,2.07
2018-08-22T16:51:25.349Z,2.40
2018-08-22T16:54:00.994Z,2.53
2018-08-22T16:56:31.768Z,2.73
2018-08-22T16:59:07.276Z,2.97
2018-08-22T17:01:37.707Z,3.13
2018-08-22T17:04:07.356Z,3.07
2018-08-22T17:06:35.623Z,2.90
2018-08-22T17:09:06.773Z,2.83
2018-08-22T17:11:35.689Z,2.87
2018-08-22T17:14:05.084Z,2.67
2018-08-22T17:16:34.816Z,2.43
2018-08-22T17:19:03.279Z,3.03
2018-08-22T17:21:31.519Z,2.80
2018-08-22T17:23:59.771Z,2.90
2018-08-22T17:26:28.251Z,2.83
2018-08-22T17:29:00.029Z,3.17
2018-08-22T17:31:30.070Z,3.00
2018-08-22T17:34:00.115Z,3.90
2018-08-22T17:36:29.135Z,3.77
2018-08-22T17:38:58.792Z,3.57
2018-08-22T17:41:29.814Z,3.90
2018-08-22T17:44:06.788Z,3.20
2018-08-22T17:46:41.911Z,3.37
2018-08-22T17:49:10.929Z,3.10
2018-08-22T17:52:12.924Z,2.90
2018-08-22T17:54:41.227Z,2.97
2018-08-22T17:57:15.736Z,2.97
2018-08-22T17:59:44.678Z,2.80
2018-08-22T18:02:13.151Z,3.10
2018-08-22T18:04:52.952Z,2.93
2018-08-22T18:07:21.413Z,2.87
2018-08-22T18:09:50.270Z,2.70
2018-08-22T18:12:19.324Z,2.00
2018-08-22T18:14:47.804Z,2.40
2018-08-22T18:17:18.715Z,2.80
2018-08-22T18:19:48.329Z,2.60
2018-08-22T18:22:18.058Z,3.07
2018-08-22T18:24:53.244Z,3.13
2018-08-22T18:27:21.812Z,3.03
2018-08-22T18:29:50.618Z,3.27
2018-08-22T18:32:19.127Z,4.00
2018-08-22T18:35:06.950Z,4.00
2018-08-22T18:37:35.526Z,3.37
2018-08-22T18:40:15.628Z,3.40
2018-08-22T18:42:53.548Z,3.17
2018-08-22T18:45:22.516Z,3.17
2018-08-22T18:47:51.288Z,3.00
2018-08-22T18:50:22.381Z,3.20
2018-08-22T18:52:53.698Z,3.63
2018-08-22T18:55:26.369Z,3.50
2018-08-22T18:57:55.279Z,3.63
2018-08-22T19:00:23.799Z,3.23
2018-08-22T19:02:57.691Z,3.10
2018-08-22T19:05:30.848Z,3.47
2018-08-22T19:08:06.787Z,5.07
2018-08-22T19:10:37.254Z,5.70
2018-08-22T19:13:24.695Z,6.60
2018-08-22T19:15:57.039Z,6.93
2018-08-22T19:18:26.592Z,5.90
2018-08-22T19:20:56.372Z,5.40
2018-08-22T19:23:24.770Z,6.47
2018-08-22T19:25:53.741Z,4.43
2018-08-22T19:28:21.931Z,4.33
2018-08-22T19:30:50.382Z,4.37
2018-08-22T19:33:20.022Z,4.13
2018-08-22T19:35:48.460Z,4.53
2018-08-22T19:38:18.383Z,4.30
2018-08-22T19:40:46.651Z,3.83
2018-08-22T19:43:14.987Z,4.27
2018-08-22T19:45:43.268Z,3.93
2018-08-22T19:48:11.611Z,4.90
2018-08-22T19:50:39.851Z,5.47
2018-08-22T19:53:08.259Z,5.47
2018-08-22T19:55:37.360Z,5.43
2018-08-22T19:58:06.639Z,5.53
2018-08-22T20:00:35.980Z,5.33
2018-08-22T20:03:05.297Z,5.10
2018-08-22T20:05:55.558Z,4.80
2018-08-22T20:08:33.559Z,4.83
2018-08-22T20:11:02.215Z,4.57
2018-08-22T20:13:42.040Z,5.20
2018-08-22T20:16:10.968Z,5.33
2018-08-22T20:18:40.420Z,5.40
2018-08-22T20:21:15.862Z,5.93
2018-08-22T20:23:45.632Z,5.67
2018-08-22T20:26:14.707Z,6.00
2018-08-22T20:28:47.884Z,8.60
2018-08-22T20:31:17.060Z,9.30
2018-08-22T20:33:57.126Z,8.57
2018-08-22T20:36:25.597Z,9.73
2018-08-22T20:38:54.366Z,7.10
2018-08-22T20:41:23.818Z,6.70
2018-08-22T20:43:53.189Z,5.73
2018-08-22T20:46:21.615Z,6.73
2018-08-22T20:48:51.237Z,7.17
2018-08-22T20:51:19.926Z,8.03
2018-08-22T20:53:55.317Z,8.27
2018-08-22T20:56:23.771Z,9.10
2018-08-22T20:58:52.798Z,8.23
2018-08-22T21:01:22.412Z,10.17
2018-08-22T21:03:51.757Z,10.93
2018-08-22T21:06:22.186Z,9.70
2018-08-22T21:08:50.741Z,10.13
2018-08-22T21:11:19.090Z,10.73
2018-08-22T21:13:47.513Z,12.37
2018-08-22T21:16:15.699Z,11.87
2018-08-22T21:18:43.981Z,15.50
2018-08-22T21:21:16.576Z,14.10
2018-08-22T21:23:45.171Z,12.20
2018-08-22T21:26:19.079Z,11.70
2018-08-22T21:28:47.576Z,12.30
2018-08-22T21:31:16.176Z,12.40
2018-08-22T21:33:44.728Z,12.57
2018-08-22T21:36:19.418Z,13.07
2018-08-22T21:38:47.790Z,12.33
2018-08-22T21:41:16.131Z,13.77
2018-08-22T21:43:44.961Z,11.93
2018-08-22T21:46:13.388Z,12.30
2018-08-22T21:48:41.799Z,12.27
2018-08-22T21:51:10.123Z,10.83
2018-08-22T21:53:38.508Z,12.33
2018-08-22T21:56:06.991Z,11.80
2018-08-22T21:58:35.323Z,10.73
2018-08-22T22:01:04.965Z,11.67
2018-08-22T22:03:35.433Z,12.27
2018-08-22T22:06:05.376Z,11.73
2018-08-22T22:08:34.645Z,10.67
2018-08-22T22:11:05.783Z,12.10
2018-08-22T22:13:34.274Z,11.47
2018-08-22T22:16:04.548Z,12.47
2018-08-22T22:18:34.016Z,12.53
2018-08-22T22:21:11.716Z,11.57
2018-08-22T22:23:44.598Z,13.03
2018-08-22T22:26:13.990Z,12.23
2018-08-22T22:28:48.997Z,13.37
2018-08-22T22:31:18.735Z,14.00
2018-08-22T22:34:01.010Z,12.53
2018-08-22T22:36:34.594Z,13.23
2018-08-22T22:39:04.119Z,12.60
2018-08-22T22:41:32.873Z,12.60
2018-08-22T22:44:01.084Z,13.80
2018-08-22T22:46:29.372Z,13.77
2018-08-22T22:48:57.595Z,13.83
2018-08-22T22:51:25.865Z,13.83
2018-08-22T22:53:54.099Z,13.10
2018-08-22T22:56:22.321Z,13.07
2018-08-22T22:58:50.565Z,15.83
2018-08-22T23:01:18.816Z,14.07
2018-08-22T23:03:47.079Z,16.47
2018-08-22T23:06:15.952Z,15.10
2018-08-22T23:08:45.113Z,16.40
2018-08-22T23:11:13.353Z,13.97
2018-08-22T23:13:41.595Z,15.03
2018-08-22T23:16:09.829Z,14.40
2018-08-22T23:18:38.261Z,14.60
2018-08-22T23:21:06.408Z,15.53
2018-08-22T23:23:37.353Z,15.00
2018-08-22T23:26:12.962Z,14.63
2018-08-22T23:28:42.312Z,15.13
2018-08-22T23:31:10.696Z,14.53
2018-08-22T23:33:38.903Z,15.47
2018-08-22T23:36:07.108Z,15.57
2018-08-22T23:38:37.183Z,13.73
2018-08-22T23:41:05.485Z,15.13
2018-08-22T23:43:54.679Z,15.70
2018-08-22T23:46:22.936Z,12.90
2018-08-22T23:49:58.463Z,15.20
2018-08-22T23:52:33.556Z,15.23
2018-08-22T23:55:01.944Z,13.83
2018-08-22T23:57:30.207Z,13.37
2018-08-22T23:59:58.415Z,13.97
